createdAt,value
2022-09-05T00:00:31.000Z,16.65
2022-09-05T00:01:31.000Z,16.65
2022-09-05T00:02:31.000Z,16.63
2022-09-05T00:03:41.000Z,16.62
2022-09-05T00:04:31.000Z,16.60
2022-09-05T00:05:31.000Z,16.62
2022-09-05T00:06:31.000Z,16.57
2022-09-05T00:07:31.000Z,16.57
2022-09-05T00:08:31.000Z,16.55
2022-09-05T00:09:31.000Z,16.54
2022-09-05T00:10:31.000Z,16.59
2022-09-05T00:11:31.000Z,16.55
2022-09-05T00:12:31.000Z,16.55
2022-09-05T00:13:31.000Z,16.55
2022-09-05T00:13:31.000Z,16.55
2022-09-05T00:13:31.000Z,16.55
2022-09-05T00:14:31.000Z,16.52
2022-09-05T00:14:31.000Z,16.52
2022-09-05T00:14:31.000Z,16.52
2022-09-05T00:15:31.000Z,16.55
2022-09-05T00:15:31.000Z,16.55
2022-09-05T00:15:31.000Z,16.55
2022-09-05T00:16:31.000Z,16.51
2022-09-05T00:16:31.000Z,16.51
2022-09-05T00:16:31.000Z,16.51
2022-09-05T00:17:31.000Z,16.54
2022-09-05T00:17:31.000Z,16.54
2022-09-05T00:17:31.000Z,16.54
2022-09-05T00:18:31.000Z,16.54
2022-09-05T00:18:31.000Z,16.54
2022-09-05T00:19:31.000Z,16.51
2022-09-05T00:19:31.000Z,16.51
2022-09-05T00:20:31.000Z,16.50
2022-09-05T00:20:31.000Z,16.50
2022-09-05T00:21:31.000Z,16.50
2022-09-05T00:21:31.000Z,16.50
2022-09-05T00:22:31.000Z,16.47
2022-09-05T00:22:31.000Z,16.47
2022-09-05T00:23:31.000Z,16.44
2022-09-05T00:24:31.000Z,16.47
2022-09-05T00:25:31.000Z,16.47
2022-09-05T00:26:31.000Z,16.45
2022-09-05T00:27:31.000Z,16.42
2022-09-05T00:28:31.000Z,16.44
2022-09-05T00:29:31.000Z,16.44
2022-09-05T00:30:31.000Z,16.41
2022-09-05T00:31:31.000Z,16.37
2022-09-05T00:32:31.000Z,16.40
2022-09-05T00:33:31.000Z,16.36
2022-09-05T00:34:31.000Z,16.36
2022-09-05T00:35:31.000Z,16.34
2022-09-05T00:36:31.000Z,16.33
2022-09-05T00:37:31.000Z,16.32
2022-09-05T00:38:31.000Z,16.29
2022-09-05T00:39:31.000Z,16.30
2022-09-05T00:40:31.000Z,16.30
2022-09-05T00:41:31.000Z,16.30
2022-09-05T00:42:31.000Z,16.23
2022-09-05T00:43:31.000Z,16.23
2022-09-05T00:44:31.000Z,16.23
2022-09-05T00:45:31.000Z,16.23
2022-09-05T00:46:30.000Z,16.22
2022-09-05T00:47:30.000Z,16.23
2022-09-05T00:48:30.000Z,16.18
2022-09-05T00:49:30.000Z,16.22
2022-09-05T00:50:30.000Z,16.22
2022-09-05T00:51:30.000Z,16.18
2022-09-05T00:52:30.000Z,16.18
2022-09-05T00:53:30.000Z,16.18
2022-09-05T00:54:30.000Z,16.17
2022-09-05T00:55:30.000Z,16.16
2022-09-05T00:56:30.000Z,16.13
2022-09-05T00:57:30.000Z,16.14
2022-09-05T00:58:30.000Z,16.16
2022-09-05T00:59:30.000Z,16.14
2022-09-05T01:00:30.000Z,16.13
2022-09-05T01:01:30.000Z,16.10
2022-09-05T01:02:30.000Z,16.11
2022-09-05T01:03:30.000Z,16.13
2022-09-05T01:04:30.000Z,16.10
2022-09-05T01:05:30.000Z,16.07
2022-09-05T01:06:30.000Z,16.04
2022-09-05T01:07:30.000Z,16.04
2022-09-05T01:08:30.000Z,16.04
2022-09-05T01:09:30.000Z,16.06
2022-09-05T01:10:30.000Z,16.03
2022-09-05T01:11:30.000Z,16.01
2022-09-05T01:12:30.000Z,15.98
2022-09-05T01:13:30.000Z,15.98
2022-09-05T01:14:30.000Z,15.96
2022-09-05T01:15:30.000Z,15.95
2022-09-05T01:16:30.000Z,15.95
2022-09-05T01:17:30.000Z,15.95
2022-09-05T01:18:30.000Z,15.96
2022-09-05T01:19:30.000Z,15.93
2022-09-05T01:20:30.000Z,15.93
2022-09-05T01:21:30.000Z,15.93
2022-09-05T01:22:30.000Z,15.95
2022-09-05T01:23:30.000Z,15.98
2022-09-05T01:23:30.000Z,15.98
2022-09-05T01:24:30.000Z,15.93
2022-09-05T01:24:30.000Z,15.93
2022-09-05T01:25:30.000Z,15.95
2022-09-05T01:25:30.000Z,15.95
2022-09-05T01:26:30.000Z,15.95
2022-09-05T01:26:30.000Z,15.95
2022-09-05T01:27:30.000Z,15.96
2022-09-05T01:27:30.000Z,15.96
2022-09-05T01:28:30.000Z,15.95
2022-09-05T01:29:30.000Z,15.92
2022-09-05T01:30:30.000Z,15.93
2022-09-05T01:31:30.000Z,15.95
2022-09-05T01:32:30.000Z,15.92
2022-09-05T01:33:30.000Z,15.93
2022-09-05T01:34:30.000Z,15.93
2022-09-05T01:35:30.000Z,15.92
2022-09-05T01:36:30.000Z,15.93
2022-09-05T01:37:30.000Z,15.92
2022-09-05T01:38:30.000Z,15.92
2022-09-05T01:39:30.000Z,15.89
2022-09-05T01:40:30.000Z,15.91
2022-09-05T01:41:30.000Z,15.91
2022-09-05T01:42:30.000Z,15.89
2022-09-05T01:43:30.000Z,15.88
2022-09-05T01:44:30.000Z,15.88
2022-09-05T01:45:30.000Z,15.88
2022-09-05T01:46:30.000Z,15.84
2022-09-05T01:47:30.000Z,15.84
2022-09-05T01:48:30.000Z,15.84
2022-09-05T01:49:30.000Z,15.81
2022-09-05T01:50:30.000Z,15.80
2022-09-05T01:51:30.000Z,15.80
2022-09-05T01:52:30.000Z,15.84
2022-09-05T01:53:30.000Z,15.84
2022-09-05T01:54:30.000Z,15.77
2022-09-05T01:55:30.000Z,15.76
2022-09-05T01:56:30.000Z,15.76
2022-09-05T01:57:30.000Z,15.74
2022-09-05T01:58:29.000Z,15.78
2022-09-05T01:59:29.000Z,15.76
2022-09-05T02:00:29.000Z,15.73
2022-09-05T02:01:29.000Z,15.71
2022-09-05T02:02:29.000Z,15.70
2022-09-05T02:03:29.000Z,15.71
2022-09-05T02:04:29.000Z,15.70
2022-09-05T02:05:29.000Z,15.67
2022-09-05T02:06:29.000Z,15.67
2022-09-05T02:07:29.000Z,15.67
2022-09-05T02:08:29.000Z,15.66
2022-09-05T02:09:29.000Z,15.66
2022-09-05T02:10:29.000Z,15.66
2022-09-05T02:11:29.000Z,15.66
2022-09-05T02:12:29.000Z,15.66
2022-09-05T02:13:29.000Z,15.60
2022-09-05T02:14:29.000Z,15.62
2022-09-05T02:15:29.000Z,15.60
2022-09-05T02:16:29.000Z,15.58
2022-09-05T02:17:29.000Z,15.58
2022-09-05T02:18:29.000Z,15.56
2022-09-05T02:18:29.000Z,15.56
2022-09-05T02:19:29.000Z,15.56
2022-09-05T02:19:29.000Z,15.56
2022-09-05T02:20:29.000Z,15.56
2022-09-05T02:20:29.000Z,15.56
2022-09-05T02:21:29.000Z,15.55
2022-09-05T02:21:29.000Z,15.55
2022-09-05T02:22:29.000Z,15.58
2022-09-05T02:22:29.000Z,15.58
2022-09-05T02:23:29.000Z,15.58
2022-09-05T02:24:29.000Z,15.58
2022-09-05T02:25:29.000Z,15.55
2022-09-05T02:26:29.000Z,15.56
2022-09-05T02:27:29.000Z,15.58
2022-09-05T02:28:29.000Z,15.56
2022-09-05T02:29:29.000Z,15.55
2022-09-05T02:30:29.000Z,15.58
2022-09-05T02:31:29.000Z,15.56
2022-09-05T02:32:29.000Z,15.56
2022-09-05T02:33:29.000Z,15.56
2022-09-05T02:33:29.000Z,15.56
2022-09-05T02:33:29.000Z,15.56
2022-09-05T02:34:29.000Z,15.53
2022-09-05T02:34:29.000Z,15.53
2022-09-05T02:34:29.000Z,15.53
2022-09-05T02:35:29.000Z,15.51
2022-09-05T02:35:29.000Z,15.51
2022-09-05T02:35:29.000Z,15.51
2022-09-05T02:36:29.000Z,15.52
2022-09-05T02:36:29.000Z,15.52
2022-09-05T02:36:29.000Z,15.52
2022-09-05T02:37:29.000Z,15.48
2022-09-05T02:37:29.000Z,15.48
2022-09-05T02:37:29.000Z,15.48
2022-09-05T02:38:29.000Z,15.48
2022-09-05T02:38:29.000Z,15.48
2022-09-05T02:39:29.000Z,15.49
2022-09-05T02:39:29.000Z,15.49
2022-09-05T02:40:29.000Z,15.46
2022-09-05T02:40:29.000Z,15.46
2022-09-05T02:41:29.000Z,15.43
2022-09-05T02:41:29.000Z,15.43
2022-09-05T02:42:29.000Z,15.43
2022-09-05T02:42:29.000Z,15.43
2022-09-05T02:43:29.000Z,15.41
2022-09-05T02:44:29.000Z,15.37
2022-09-05T02:45:29.000Z,15.40
2022-09-05T02:46:29.000Z,15.37
2022-09-05T02:47:29.000Z,15.35
2022-09-05T02:48:29.000Z,15.31
2022-09-05T02:48:29.000Z,15.31
2022-09-05T02:48:29.000Z,15.31
2022-09-05T02:49:29.000Z,15.33
2022-09-05T02:49:29.000Z,15.33
2022-09-05T02:49:29.000Z,15.33
2022-09-05T02:50:29.000Z,15.31
2022-09-05T02:50:29.000Z,15.31
2022-09-05T02:50:29.000Z,15.31
2022-09-05T02:51:29.000Z,15.33
2022-09-05T02:51:29.000Z,15.33
2022-09-05T02:51:29.000Z,15.33
2022-09-05T02:52:29.000Z,15.30
2022-09-05T02:52:29.000Z,15.30
2022-09-05T02:52:29.000Z,15.30
2022-09-05T02:53:29.000Z,15.28
2022-09-05T02:53:29.000Z,15.28
2022-09-05T02:54:29.000Z,15.27
2022-09-05T02:54:29.000Z,15.27
2022-09-05T02:55:29.000Z,15.28
2022-09-05T02:55:29.000Z,15.28
2022-09-05T02:56:29.000Z,15.30
2022-09-05T02:56:29.000Z,15.30
2022-09-05T02:57:29.000Z,15.23
2022-09-05T02:57:29.000Z,15.23
2022-09-05T02:58:29.000Z,15.22
2022-09-05T02:59:29.000Z,15.20
2022-09-05T03:00:29.000Z,15.22
2022-09-05T03:01:29.000Z,15.19
2022-09-05T03:02:29.000Z,15.19
2022-09-05T03:03:29.000Z,15.18
2022-09-05T03:04:29.000Z,15.15
2022-09-05T03:05:29.000Z,15.16
2022-09-05T03:06:29.000Z,15.18
2022-09-05T03:07:29.000Z,15.16
2022-09-05T03:08:29.000Z,15.12
2022-09-05T03:08:29.000Z,15.12
2022-09-05T03:09:29.000Z,15.12
2022-09-05T03:09:29.000Z,15.12
2022-09-05T03:10:29.000Z,15.09
2022-09-05T03:10:29.000Z,15.09
2022-09-05T03:11:28.000Z,15.13
2022-09-05T03:11:28.000Z,15.13
2022-09-05T03:12:28.000Z,15.07
2022-09-05T03:12:28.000Z,15.07
2022-09-05T03:13:28.000Z,15.07
2022-09-05T03:14:28.000Z,15.04
2022-09-05T03:15:28.000Z,15.05
2022-09-05T03:16:28.000Z,15.00
2022-09-05T03:17:28.000Z,15.01
2022-09-05T03:18:28.000Z,15.01
2022-09-05T03:19:28.000Z,15.00
2022-09-05T03:20:28.000Z,14.97
2022-09-05T03:21:28.000Z,14.97
2022-09-05T03:22:28.000Z,14.95
2022-09-05T03:23:28.000Z,14.95
2022-09-05T03:24:28.000Z,14.93
2022-09-05T03:25:28.000Z,14.93
2022-09-05T03:26:28.000Z,14.91
2022-09-05T03:27:28.000Z,14.91
2022-09-05T03:28:28.000Z,14.87
2022-09-05T03:29:28.000Z,14.87
2022-09-05T03:30:28.000Z,14.86
2022-09-05T03:31:28.000Z,14.86
2022-09-05T03:32:28.000Z,14.87
2022-09-05T03:33:28.000Z,14.83
2022-09-05T03:34:28.000Z,14.85
2022-09-05T03:35:28.000Z,14.83
2022-09-05T03:36:28.000Z,14.79
2022-09-05T03:37:28.000Z,14.82
2022-09-05T03:38:28.000Z,14.82
2022-09-05T03:39:28.000Z,14.75
2022-09-05T03:40:28.000Z,14.75
2022-09-05T03:41:28.000Z,14.74
2022-09-05T03:42:28.000Z,14.74
2022-09-05T03:43:28.000Z,14.72
2022-09-05T03:44:28.000Z,14.69
2022-09-05T03:45:28.000Z,14.72
2022-09-05T03:46:28.000Z,14.69
2022-09-05T03:47:28.000Z,14.64
2022-09-05T03:48:28.000Z,14.66
2022-09-05T03:48:28.000Z,14.66
2022-09-05T03:49:28.000Z,14.61
2022-09-05T03:49:28.000Z,14.61
2022-09-05T03:50:28.000Z,14.60
2022-09-05T03:50:28.000Z,14.60
2022-09-05T03:51:28.000Z,14.60
2022-09-05T03:51:28.000Z,14.60
2022-09-05T03:52:28.000Z,14.61
2022-09-05T03:52:28.000Z,14.61
2022-09-05T03:53:28.000Z,14.59
2022-09-05T03:54:28.000Z,14.57
2022-09-05T03:55:28.000Z,14.54
2022-09-05T03:56:28.000Z,14.54
2022-09-05T03:57:28.000Z,14.59
2022-09-05T03:58:28.000Z,14.56
2022-09-05T03:59:28.000Z,14.56
2022-09-05T04:00:28.000Z,14.54
2022-09-05T04:01:28.000Z,14.52
2022-09-05T04:02:28.000Z,14.49
2022-09-05T04:04:45.000Z,14.52
2022-09-05T04:04:45.000Z,14.49
2022-09-05T04:05:45.000Z,14.46
2022-09-05T04:06:45.000Z,14.42
2022-09-05T04:07:45.000Z,14.41
2022-09-05T04:08:45.000Z,14.42
2022-09-05T04:09:45.000Z,14.39
2022-09-05T04:10:45.000Z,14.36
2022-09-05T04:11:45.000Z,14.39
2022-09-05T04:12:45.000Z,14.38
2022-09-05T04:13:45.000Z,14.34
2022-09-05T04:14:45.000Z,14.34
2022-09-05T04:15:45.000Z,14.30
2022-09-05T04:16:45.000Z,14.30
2022-09-05T04:17:45.000Z,14.30
2022-09-05T04:18:45.000Z,14.31
2022-09-05T04:19:45.000Z,14.30
2022-09-05T04:20:45.000Z,14.30
2022-09-05T04:21:45.000Z,14.29
2022-09-05T04:22:45.000Z,14.27
2022-09-05T04:23:45.000Z,14.30
2022-09-05T04:24:45.000Z,14.30
2022-09-05T04:25:45.000Z,14.29
2022-09-05T04:26:45.000Z,14.29
2022-09-05T04:27:45.000Z,14.27
2022-09-05T04:28:45.000Z,14.29
2022-09-05T04:29:45.000Z,14.27
2022-09-05T04:30:45.000Z,14.24
2022-09-05T04:31:45.000Z,14.24
2022-09-05T04:32:45.000Z,14.24
2022-09-05T04:33:45.000Z,14.24
2022-09-05T04:34:45.000Z,14.26
2022-09-05T04:35:45.000Z,14.24
2022-09-05T04:36:45.000Z,14.23
2022-09-05T04:37:45.000Z,14.23
2022-09-05T04:38:45.000Z,14.21
2022-09-05T04:39:45.000Z,14.24
2022-09-05T04:40:45.000Z,14.21
2022-09-05T04:41:45.000Z,14.21
2022-09-05T04:42:45.000Z,14.19
2022-09-05T04:43:45.000Z,14.20
2022-09-05T04:44:45.000Z,14.20
2022-09-05T04:45:45.000Z,14.21
2022-09-05T04:46:45.000Z,14.21
2022-09-05T04:47:45.000Z,14.24
2022-09-05T04:48:44.000Z,14.21
2022-09-05T04:49:44.000Z,14.20
2022-09-05T04:50:44.000Z,14.17
2022-09-05T04:51:44.000Z,14.20
2022-09-05T04:52:44.000Z,14.19
2022-09-05T04:53:44.000Z,14.20
2022-09-05T04:53:44.000Z,14.20
2022-09-05T04:53:44.000Z,14.20
2022-09-05T04:54:44.000Z,14.20
2022-09-05T04:54:44.000Z,14.20
2022-09-05T04:54:44.000Z,14.20
2022-09-05T04:55:44.000Z,14.19
2022-09-05T04:55:44.000Z,14.19
2022-09-05T04:55:44.000Z,14.19
2022-09-05T04:56:44.000Z,14.23
2022-09-05T04:56:44.000Z,14.23
2022-09-05T04:56:44.000Z,14.23
2022-09-05T04:57:44.000Z,14.21
2022-09-05T04:57:44.000Z,14.21
2022-09-05T04:57:44.000Z,14.21
2022-09-05T04:58:44.000Z,14.20
2022-09-05T04:58:44.000Z,14.20
2022-09-05T04:59:44.000Z,14.19
2022-09-05T04:59:44.000Z,14.19
2022-09-05T05:00:44.000Z,14.26
2022-09-05T05:00:44.000Z,14.26
2022-09-05T05:01:44.000Z,14.21
2022-09-05T05:01:44.000Z,14.21
2022-09-05T05:02:44.000Z,14.26
2022-09-05T05:02:44.000Z,14.26
2022-09-05T05:03:44.000Z,14.27
2022-09-05T05:04:44.000Z,14.24
2022-09-05T05:05:44.000Z,14.29
2022-09-05T05:06:44.000Z,14.29
2022-09-05T05:07:44.000Z,14.31
2022-09-05T05:08:44.000Z,14.31
2022-09-05T05:08:44.000Z,14.31
2022-09-05T05:08:44.000Z,14.31
2022-09-05T05:09:44.000Z,14.31
2022-09-05T05:09:44.000Z,14.31
2022-09-05T05:09:44.000Z,14.31
2022-09-05T05:10:44.000Z,14.35
2022-09-05T05:10:44.000Z,14.35
2022-09-05T05:10:44.000Z,14.35
2022-09-05T05:11:44.000Z,14.38
2022-09-05T05:11:44.000Z,14.38
2022-09-05T05:11:44.000Z,14.38
2022-09-05T05:12:44.000Z,14.38
2022-09-05T05:12:44.000Z,14.38
2022-09-05T05:12:44.000Z,14.38
2022-09-05T05:13:44.000Z,14.38
2022-09-05T05:13:44.000Z,14.38
2022-09-05T05:14:44.000Z,14.38
2022-09-05T05:14:44.000Z,14.38
2022-09-05T05:15:44.000Z,14.44
2022-09-05T05:15:44.000Z,14.44
2022-09-05T05:16:44.000Z,14.41
2022-09-05T05:16:44.000Z,14.41
2022-09-05T05:17:44.000Z,14.42
2022-09-05T05:17:44.000Z,14.42
2022-09-05T05:18:44.000Z,14.45
2022-09-05T05:19:44.000Z,14.48
2022-09-05T05:20:44.000Z,14.52
2022-09-05T05:21:44.000Z,14.52
2022-09-05T05:22:44.000Z,14.56
2022-09-05T05:23:44.000Z,14.54
2022-09-05T05:24:44.000Z,14.60
2022-09-05T05:25:44.000Z,14.59
2022-09-05T05:26:44.000Z,14.60
2022-09-05T05:27:44.000Z,14.63
2022-09-05T05:28:44.000Z,14.66
2022-09-05T05:29:44.000Z,14.69
2022-09-05T05:30:44.000Z,14.72
2022-09-05T05:31:44.000Z,14.75
2022-09-05T05:32:44.000Z,14.80
2022-09-05T05:33:44.000Z,14.79
2022-09-05T05:34:44.000Z,14.83
2022-09-05T05:35:44.000Z,14.85
2022-09-05T05:36:44.000Z,14.87
2022-09-05T05:37:44.000Z,14.87
2022-09-05T05:38:44.000Z,14.93
2022-09-05T05:39:44.000Z,14.95
2022-09-05T05:40:44.000Z,15.00
2022-09-05T05:41:44.000Z,15.03
2022-09-05T05:42:44.000Z,15.01
2022-09-05T05:43:44.000Z,15.05
2022-09-05T05:43:44.000Z,15.05
2022-09-05T05:44:44.000Z,15.05
2022-09-05T05:44:44.000Z,15.05
2022-09-05T05:45:44.000Z,15.11
2022-09-05T05:45:44.000Z,15.11
2022-09-05T05:46:44.000Z,15.18
2022-09-05T05:46:44.000Z,15.18
2022-09-05T05:47:44.000Z,15.18
2022-09-05T05:47:44.000Z,15.18
2022-09-05T05:48:44.000Z,15.20
2022-09-05T05:49:44.000Z,15.22
2022-09-05T05:50:44.000Z,15.23
2022-09-05T05:51:44.000Z,15.25
2022-09-05T05:52:44.000Z,15.33
2022-09-05T05:53:44.000Z,15.34
2022-09-05T05:54:44.000Z,15.35
2022-09-05T05:55:44.000Z,15.37
2022-09-05T05:56:44.000Z,15.41
2022-09-05T05:57:44.000Z,15.46
2022-09-05T05:58:44.000Z,15.49
2022-09-05T05:59:44.000Z,15.49
2022-09-05T06:00:44.000Z,15.52
2022-09-05T06:01:43.000Z,15.56
2022-09-05T06:02:43.000Z,15.59
2022-09-05T06:03:43.000Z,15.62
2022-09-05T06:03:43.000Z,15.62
2022-09-05T06:03:43.000Z,15.62
2022-09-05T06:04:43.000Z,15.67
2022-09-05T06:04:43.000Z,15.67
2022-09-05T06:04:43.000Z,15.67
2022-09-05T06:05:43.000Z,15.73
2022-09-05T06:05:43.000Z,15.73
2022-09-05T06:05:43.000Z,15.73
2022-09-05T06:06:43.000Z,15.70
2022-09-05T06:06:43.000Z,15.70
2022-09-05T06:06:43.000Z,15.70
2022-09-05T06:07:43.000Z,15.73
2022-09-05T06:07:43.000Z,15.73
2022-09-05T06:07:43.000Z,15.73
2022-09-05T06:08:43.000Z,15.77
2022-09-05T06:08:43.000Z,15.77
2022-09-05T06:09:43.000Z,15.78
2022-09-05T06:09:43.000Z,15.78
2022-09-05T06:10:43.000Z,15.81
2022-09-05T06:10:43.000Z,15.81
2022-09-05T06:11:43.000Z,15.88
2022-09-05T06:11:43.000Z,15.88
2022-09-05T06:12:43.000Z,15.88
2022-09-05T06:12:43.000Z,15.88
2022-09-05T06:13:43.000Z,15.95
2022-09-05T06:14:43.000Z,16.01
2022-09-05T06:15:43.000Z,15.99
2022-09-05T06:16:43.000Z,16.06
2022-09-05T06:17:43.000Z,16.06
2022-09-05T06:20:00.000Z,16.13
2022-09-05T06:20:00.000Z,16.07
2022-09-05T06:21:00.000Z,16.14
2022-09-05T06:22:00.000Z,16.22
2022-09-05T06:23:00.000Z,16.26
2022-09-05T06:24:00.000Z,16.23
2022-09-05T06:25:00.000Z,16.29
2022-09-05T06:26:00.000Z,16.32
2022-09-05T06:27:00.000Z,16.37
2022-09-05T06:28:00.000Z,16.41
2022-09-05T06:29:00.000Z,16.44
2022-09-05T06:29:00.000Z,16.44
2022-09-05T06:30:00.000Z,16.48
2022-09-05T06:30:00.000Z,16.48
2022-09-05T06:31:00.000Z,16.52
2022-09-05T06:31:00.000Z,16.52
2022-09-05T06:32:00.000Z,16.54
2022-09-05T06:32:00.000Z,16.54
2022-09-05T06:33:00.000Z,16.57
2022-09-05T06:33:00.000Z,16.57
2022-09-05T06:34:00.000Z,16.62
2022-09-05T06:35:00.000Z,16.63
2022-09-05T06:36:00.000Z,16.67
2022-09-05T06:37:00.000Z,16.70
2022-09-05T06:38:00.000Z,16.70
2022-09-05T06:39:00.000Z,16.70
2022-09-05T06:40:00.000Z,16.75
2022-09-05T06:41:00.000Z,16.75
2022-09-05T06:42:00.000Z,16.78
2022-09-05T06:43:00.000Z,16.81
2022-09-05T06:44:00.000Z,16.84
2022-09-05T06:44:00.000Z,16.84
2022-09-05T06:45:00.000Z,16.88
2022-09-05T06:45:00.000Z,16.88
2022-09-05T06:46:00.000Z,16.88
2022-09-05T06:46:00.000Z,16.88
2022-09-05T06:47:00.000Z,16.92
2022-09-05T06:47:00.000Z,16.92
2022-09-05T06:48:00.000Z,16.96
2022-09-05T06:48:00.000Z,16.96
2022-09-05T06:49:00.000Z,16.98
2022-09-05T06:50:00.000Z,17.03
2022-09-05T06:51:00.000Z,17.05
2022-09-05T06:52:00.000Z,17.09
2022-09-05T06:53:00.000Z,17.09
2022-09-05T06:54:00.000Z,17.12
2022-09-05T06:55:00.000Z,17.10
2022-09-05T06:56:00.000Z,17.15
2022-09-05T06:57:00.000Z,17.20
2022-09-05T06:58:00.000Z,17.21
2022-09-05T06:59:00.000Z,17.27
2022-09-05T06:59:00.000Z,17.27
2022-09-05T07:00:00.000Z,17.30
2022-09-05T07:00:00.000Z,17.30
2022-09-05T07:00:59.000Z,17.33
2022-09-05T07:00:59.000Z,17.33
2022-09-05T07:01:59.000Z,17.33
2022-09-05T07:01:59.000Z,17.33
2022-09-05T07:02:59.000Z,17.30
2022-09-05T07:02:59.000Z,17.30
2022-09-05T07:03:59.000Z,17.30
2022-09-05T07:04:59.000Z,17.30
2022-09-05T07:05:59.000Z,17.33
2022-09-05T07:06:59.000Z,17.33
2022-09-05T07:07:59.000Z,17.36
2022-09-05T07:08:59.000Z,17.42
2022-09-05T07:09:59.000Z,17.51
2022-09-05T07:10:59.000Z,17.54
2022-09-05T07:11:59.000Z,17.58
2022-09-05T07:12:59.000Z,17.68
2022-09-05T07:13:59.000Z,17.68
2022-09-05T07:14:59.000Z,17.73
2022-09-05T07:15:59.000Z,17.80
2022-09-05T07:16:59.000Z,17.81
2022-09-05T07:17:59.000Z,17.86
2022-09-05T07:18:59.000Z,17.87
2022-09-05T07:19:59.000Z,17.96
2022-09-05T07:20:59.000Z,17.98
2022-09-05T07:21:59.000Z,17.99
2022-09-05T07:22:59.000Z,18.09
2022-09-05T07:23:59.000Z,18.19
2022-09-05T07:24:59.000Z,18.20
2022-09-05T07:25:59.000Z,18.25
2022-09-05T07:26:59.000Z,18.25
2022-09-05T07:27:59.000Z,18.31
2022-09-05T07:28:59.000Z,18.32
2022-09-05T07:28:59.000Z,18.32
2022-09-05T07:28:59.000Z,18.32
2022-09-05T07:29:59.000Z,18.36
2022-09-05T07:29:59.000Z,18.36
2022-09-05T07:29:59.000Z,18.36
2022-09-05T07:30:59.000Z,18.41
2022-09-05T07:30:59.000Z,18.41
2022-09-05T07:30:59.000Z,18.41
2022-09-05T07:31:59.000Z,18.47
2022-09-05T07:31:59.000Z,18.47
2022-09-05T07:31:59.000Z,18.47
2022-09-05T07:32:59.000Z,18.50
2022-09-05T07:32:59.000Z,18.50
2022-09-05T07:32:59.000Z,18.50
2022-09-05T07:33:59.000Z,18.53
2022-09-05T07:33:59.000Z,18.53
2022-09-05T07:34:59.000Z,18.62
2022-09-05T07:34:59.000Z,18.62
2022-09-05T07:35:59.000Z,18.65
2022-09-05T07:35:59.000Z,18.65
2022-09-05T07:36:59.000Z,18.72
2022-09-05T07:36:59.000Z,18.72
2022-09-05T07:37:59.000Z,18.78
2022-09-05T07:37:59.000Z,18.78
2022-09-05T07:38:59.000Z,18.83
2022-09-05T07:39:59.000Z,18.90
2022-09-05T07:40:59.000Z,18.96
2022-09-05T07:41:59.000Z,18.99
2022-09-05T07:42:59.000Z,19.05
2022-09-05T07:43:59.000Z,19.01
2022-09-05T07:44:59.000Z,19.09
2022-09-05T07:45:59.000Z,19.12
2022-09-05T07:46:59.000Z,19.15
2022-09-05T07:47:59.000Z,19.24
2022-09-05T07:48:59.000Z,19.31
2022-09-05T07:48:59.000Z,19.31
2022-09-05T07:49:59.000Z,19.40
2022-09-05T07:49:59.000Z,19.40
2022-09-05T07:50:59.000Z,19.46
2022-09-05T07:50:59.000Z,19.46
2022-09-05T07:51:59.000Z,19.49
2022-09-05T07:51:59.000Z,19.49
2022-09-05T07:52:59.000Z,19.50
2022-09-05T07:52:59.000Z,19.50
2022-09-05T07:53:59.000Z,19.60
2022-09-05T07:54:59.000Z,19.64
2022-09-05T07:55:59.000Z,19.72
2022-09-05T07:56:59.000Z,19.76
2022-09-05T07:57:59.000Z,19.82
2022-09-05T07:58:59.000Z,19.94
2022-09-05T07:59:59.000Z,19.98
2022-09-05T08:00:59.000Z,20.04
2022-09-05T08:01:59.000Z,20.12
2022-09-05T08:02:59.000Z,20.15
2022-09-05T08:03:59.000Z,20.26
2022-09-05T08:03:59.000Z,20.26
2022-09-05T08:03:59.000Z,20.26
2022-09-05T08:04:59.000Z,20.35
2022-09-05T08:04:59.000Z,20.35
2022-09-05T08:04:59.000Z,20.35
2022-09-05T08:05:59.000Z,20.46
2022-09-05T08:05:59.000Z,20.46
2022-09-05T08:05:59.000Z,20.46
2022-09-05T08:06:59.000Z,20.56
2022-09-05T08:06:59.000Z,20.56
2022-09-05T08:06:59.000Z,20.56
2022-09-05T08:07:59.000Z,20.76
2022-09-05T08:07:59.000Z,20.76
2022-09-05T08:07:59.000Z,20.76
2022-09-05T08:08:59.000Z,21.11
2022-09-05T08:08:59.000Z,21.11
2022-09-05T08:09:59.000Z,21.61
2022-09-05T08:09:59.000Z,21.61
2022-09-05T08:10:59.000Z,21.94
2022-09-05T08:10:59.000Z,21.94
2022-09-05T08:11:59.000Z,22.39
2022-09-05T08:11:59.000Z,22.39
2022-09-05T08:12:59.000Z,22.82
2022-09-05T08:12:59.000Z,22.82
2022-09-05T08:13:58.000Z,22.96
2022-09-05T08:14:58.000Z,22.70
2022-09-05T08:15:58.000Z,22.39
2022-09-05T08:16:58.000Z,22.46
2022-09-05T08:17:58.000Z,22.38
2022-09-05T08:18:58.000Z,22.48
2022-09-05T08:18:58.000Z,22.48
2022-09-05T08:19:58.000Z,22.78
2022-09-05T08:19:58.000Z,22.78
2022-09-05T08:20:58.000Z,22.91
2022-09-05T08:20:58.000Z,22.91
2022-09-05T08:21:58.000Z,23.01
2022-09-05T08:21:58.000Z,23.01
2022-09-05T08:22:58.000Z,23.19
2022-09-05T08:22:58.000Z,23.19
2022-09-05T08:23:58.000Z,23.47
2022-09-05T08:24:58.000Z,23.74
2022-09-05T08:25:58.000Z,24.05
2022-09-05T08:26:58.000Z,24.30
2022-09-05T08:27:58.000Z,24.52
2022-09-05T08:28:58.000Z,24.75
2022-09-05T08:29:58.000Z,24.87
2022-09-05T08:30:58.000Z,24.86
2022-09-05T08:31:58.000Z,24.83
2022-09-05T08:32:58.000Z,24.87
2022-09-05T08:33:58.000Z,24.98
2022-09-05T08:34:58.000Z,25.04
2022-09-05T08:35:58.000Z,25.04
2022-09-05T08:36:58.000Z,24.98
2022-09-05T08:37:58.000Z,24.92
2022-09-05T08:38:58.000Z,24.80
2022-09-05T08:38:58.000Z,24.80
2022-09-05T08:38:58.000Z,24.80
2022-09-05T08:39:58.000Z,24.79
2022-09-05T08:39:58.000Z,24.79
2022-09-05T08:39:58.000Z,24.79
2022-09-05T08:40:58.000Z,24.75
2022-09-05T08:40:58.000Z,24.75
2022-09-05T08:40:58.000Z,24.75
2022-09-05T08:41:58.000Z,24.77
2022-09-05T08:41:58.000Z,24.77
2022-09-05T08:41:58.000Z,24.77
2022-09-05T08:42:58.000Z,24.82
2022-09-05T08:42:58.000Z,24.82
2022-09-05T08:42:58.000Z,24.82
2022-09-05T08:43:58.000Z,24.90
2022-09-05T08:43:58.000Z,24.90
2022-09-05T08:44:58.000Z,24.94
2022-09-05T08:44:58.000Z,24.94
2022-09-05T08:45:58.000Z,24.92
2022-09-05T08:45:58.000Z,24.92
2022-09-05T08:46:58.000Z,25.01
2022-09-05T08:46:58.000Z,25.01
2022-09-05T08:47:58.000Z,25.04
2022-09-05T08:47:58.000Z,25.04
2022-09-05T08:48:58.000Z,25.07
2022-09-05T08:49:58.000Z,25.14
2022-09-05T08:50:58.000Z,25.11
2022-09-05T08:51:58.000Z,25.08
2022-09-05T08:52:58.000Z,25.11
2022-09-05T08:53:58.000Z,25.16
2022-09-05T08:53:58.000Z,25.16
2022-09-05T08:54:58.000Z,25.14
2022-09-05T08:54:58.000Z,25.14
2022-09-05T08:55:58.000Z,25.08
2022-09-05T08:55:58.000Z,25.08
2022-09-05T08:56:58.000Z,24.93
2022-09-05T08:56:58.000Z,24.93
2022-09-05T08:57:58.000Z,24.84
2022-09-05T08:57:58.000Z,24.84
2022-09-05T08:58:58.000Z,24.87
2022-09-05T08:59:58.000Z,24.92
2022-09-05T09:00:58.000Z,25.07
2022-09-05T09:01:58.000Z,25.16
2022-09-05T09:02:58.000Z,25.31
2022-09-05T09:03:58.000Z,25.42
2022-09-05T09:04:58.000Z,25.59
2022-09-05T09:05:58.000Z,25.61
2022-09-05T09:06:58.000Z,25.63
2022-09-05T09:07:58.000Z,25.71
2022-09-05T09:08:58.000Z,25.81
2022-09-05T09:08:58.000Z,25.81
2022-09-05T09:09:58.000Z,25.76
2022-09-05T09:09:58.000Z,25.76
2022-09-05T09:10:58.000Z,25.81
2022-09-05T09:10:58.000Z,25.81
2022-09-05T09:11:58.000Z,25.83
2022-09-05T09:11:58.000Z,25.83
2022-09-05T09:12:58.000Z,25.94
2022-09-05T09:12:58.000Z,25.94
2022-09-05T09:13:58.000Z,26.01
2022-09-05T09:14:58.000Z,25.98
2022-09-05T09:15:58.000Z,26.06
2022-09-05T09:16:58.000Z,25.86
2022-09-05T09:17:58.000Z,25.64
2022-09-05T09:18:58.000Z,25.66
2022-09-05T09:19:58.000Z,25.71
2022-09-05T09:20:58.000Z,25.72
2022-09-05T09:21:58.000Z,25.91
2022-09-05T09:22:58.000Z,26.06
2022-09-05T09:23:58.000Z,26.23
2022-09-05T09:24:58.000Z,26.27
2022-09-05T09:25:57.000Z,26.34
2022-09-05T09:26:57.000Z,26.44
2022-09-05T09:27:57.000Z,26.44
2022-09-05T09:28:57.000Z,26.46
2022-09-05T09:29:57.000Z,26.50
2022-09-05T09:30:57.000Z,26.50
2022-09-05T09:31:57.000Z,26.49
2022-09-05T09:32:57.000Z,26.47
2022-09-05T09:33:57.000Z,26.47
2022-09-05T09:33:57.000Z,26.47
2022-09-05T09:34:57.000Z,26.50
2022-09-05T09:34:57.000Z,26.50
2022-09-05T09:35:57.000Z,26.50